Time;durP1;ratioP1;P1;durP2;ratioP2;P2;SDS_P1;SDS_P2;PMS_P1;PMS_P2;Temp;Humidity;BMP_temperature;BMP_pressure;BME280_temperature;BME280_humidity;BME280_pressure;Samples;Min_cycle;Max_cycle;Signal;HPM_P1;HPM_P2
2023/05/01 00:00:42;;;;;;;12.33;7.83;;;9.10;99.90;;;;;;4927122;28;20469;-85
2023/05/01 00:03:08;;;;;;;10.17;7.23;;;;;;;;;;4946437;29;20180;-85
2023/05/01 00:05:34;;;;;;;10.83;7.17;;;9.00;99.90;;;;;;4953633;29;20670;-84
2023/05/01 00:08:00;;;;;;;11.30;7.47;;;8.90;99.90;;;;;;4934055;29;20468;-84
2023/05/01 00:10:26;;;;;;;9.40;7.57;;;;;;;;;;4946156;29;20224;-83
2023/05/01 00:12:52;;;;;;;11.07;7.17;;;;;;;;;;4947407;28;20176;-84
2023/05/01 00:15:17;;;;;;;14.20;8.33;;;8.90;99.90;;;;;;4949685;28;20457;-85
2023/05/01 00:17:43;;;;;;;14.77;8.10;;;8.80;99.90;;;;;;4937708;29;20995;-84
2023/05/01 00:20:09;;;;;;;7.83;7.03;;;8.90;99.90;;;;;;4938787;28;20218;-84
2023/05/01 00:22:34;;;;;;;13.80;8.95;;;8.90;99.90;;;;;;4928267;29;20189;-86
2023/05/01 00:25:00;;;;;;;11.40;8.17;;;8.90;99.90;;;;;;4934655;29;20188;-85
2023/05/01 00:27:26;;;;;;;11.00;7.80;;;8.90;99.90;;;;;;4929658;28;20213;-85
2023/05/01 00:29:51;;;;;;;9.57;6.70;;;9.00;99.90;;;;;;4930217;29;20320;-86
2023/05/01 00:32:17;;;;;;;10.13;7.90;;;9.00;99.90;;;;;;4941822;28;20231;-85
2023/05/01 00:34:44;;;;;;;8.50;7.60;;;8.90;99.90;;;;;;4932692;29;20284;-86
2023/05/01 00:37:10;;;;;;;11.50;8.52;;;8.90;99.90;;;;;;4945197;28;20588;-86
2023/05/01 00:39:36;;;;;;;15.63;8.40;;;9.00;99.90;;;;;;4928276;29;20192;-86
2023/05/01 00:42:02;;;;;;;14.60;8.30;;;;;;;;;;4935291;29;20425;-82
2023/05/01 00:44:28;;;;;;;12.98;8.70;;;9.00;99.90;;;;;;4942346;29;20546;-84
2023/05/01 00:46:55;;;;;;;12.43;7.90;;;9.10;99.90;;;;;;4939303;28;20212;-84
2023/05/01 00:49:20;;;;;;;10.15;8.15;;;9.50;99.90;;;;;;4939079;28;20678;-85
2023/05/01 00:51:51;;;;;;;10.03;7.90;;;9.10;99.90;;;;;;4937467;28;20349;-84
2023/05/01 00:54:18;;;;;;;15.77;8.10;;;9.20;99.90;;;;;;4947636;28;20229;-84
2023/05/01 00:56:45;;;;;;;7.90;7.10;;;9.20;99.90;;;;;;4944972;28;20219;-83
2023/05/01 00:59:11;;;;;;;16.67;8.07;;;9.30;99.90;;;;;;4945447;28;20208;-83
2023/05/01 01:01:37;;;;;;;11.20;8.20;;;9.30;99.90;;;;;;4943540;28;20736;-82
2023/05/01 01:04:03;;;;;;;14.40;8.30;;;9.30;99.90;;;;;;4944630;28;20454;-83
2023/05/01 01:06:48;;;;;;;14.70;6.67;;;9.30;99.90;;;;;;4967974;23;20288;-87
2023/05/01 01:09:26;;;;;;;14.50;8.13;;;9.30;99.90;;;;;;4978599;28;20203;-87
2023/05/01 01:11:58;;;;;;;14.93;7.90;;;9.30;99.90;;;;;;4978993;28;20207;-87
2023/05/01 01:14:31;;;;;;;10.50;8.15;;;9.40;99.90;;;;;;4962059;28;20194;-87
2023/05/01 01:17:12;;;;;;;9.15;7.72;;;9.30;99.90;;;;;;4967655;28;20210;-87
2023/05/01 01:20:23;;;;;;;11.32;7.82;;;9.40;99.90;;;;;;4963613;28;20664;-86
2023/05/01 01:23:12;;;;;;;8.40;6.93;;;9.30;99.90;;;;;;4979842;28;20207;-85
2023/05/01 01:25:59;;;;;;;12.88;7.10;;;9.20;99.90;;;;;;4957733;28;20196;-87
2023/05/01 01:29:02;;;;;;;8.70;6.97;;;8.90;99.90;;;;;;4950404;28;20207;-87
2023/05/01 01:31:38;;;;;;;12.50;8.20;;;9.10;99.90;;;;;;4949829;28;20203;-87
2023/05/01 01:34:20;;;;;;;8.80;6.95;;;9.00;99.90;;;;;;4969327;28;20542;-88
2023/05/01 01:36:53;;;;;;;9.93;6.90;;;9.00;99.90;;;;;;4955168;28;20285;-87
2023/05/01 01:39:37;;;;;;;13.40;7.47;;;9.00;99.90;;;;;;4979508;28;20187;-87
2023/05/01 01:42:10;;;;;;;11.55;6.97;;;8.90;99.90;;;;;;4961268;28;20281;-83
2023/05/01 01:44:46;;;;;;;11.32;7.47;;;8.90;99.90;;;;;;4975406;28;21269;-82
2023/05/01 01:47:14;;;;;;;9.82;7.60;;;8.90;99.90;;;;;;4977172;28;20202;-83
2023/05/01 01:49:44;;;;;;;8.48;7.07;;;9.00;99.90;;;;;;4976596;28;20857;-82
2023/05/01 01:52:13;;;;;;;9.65;6.97;;;9.00;99.90;;;;;;4972558;28;20174;-82
2023/05/01 01:54:45;;;;;;;11.25;6.53;;;9.00;99.90;;;;;;4966506;28;20210;-83
2023/05/01 01:57:13;;;;;;;9.15;7.05;;;9.00;99.90;;;;;;4973089;28;20224;-83
2023/05/01 01:59:40;;;;;;;8.10;6.53;;;9.00;99.90;;;;;;4959845;28;20215;-83
2023/05/01 02:02:07;;;;;;;9.27;7.30;;;9.00;99.90;;;;;;4974996;28;20731;-83
2023/05/01 02:04:34;;;;;;;10.70;7.65;;;9.00;99.90;;;;;;4978072;28;21168;-83
2023/05/01 02:07:01;;;;;;;8.45;6.30;;;9.00;99.90;;;;;;4978412;28;20334;-84
2023/05/01 02:09:28;;;;;;;12.35;8.05;;;8.90;99.90;;;;;;4949522;28;20211;-84
2023/05/01 02:11:55;;;;;;;9.65;6.97;;;8.80;99.90;;;;;;4975493;28;20214;-82
2023/05/01 02:14:23;;;;;;;13.05;8.55;;;8.80;99.90;;;;;;4961454;28;20219;-83
2023/05/01 02:16:49;;;;;;;10.70;7.00;;;8.60;99.90;;;;;;4976300;28;20212;-82
2023/05/01 02:19:16;;;;;;;8.35;7.13;;;8.60;99.90;;;;;;4978708;28;20196;-83
2023/05/01 02:21:44;;;;;;;10.52;7.20;;;8.70;99.90;;;;;;4977719;28;20180;-82
2023/05/01 02:24:11;;;;;;;9.20;6.45;;;8.70;99.90;;;;;;4978139;28;20180;-83
2023/05/01 02:26:41;;;;;;;9.65;7.78;;;8.70;99.90;;;;;;4975774;28;20276;-83
2023/05/01 02:29:07;;;;;;;8.48;6.93;;;8.70;99.90;;;;;;4975803;28;20164;-83
2023/05/01 02:31:33;;;;;;;10.70;7.47;;;8.60;99.90;;;;;;4957010;28;20215;-83
2023/05/01 02:33:59;;;;;;;13.52;7.20;;;8.60;99.90;;;;;;4963933;28;20430;-84
2023/05/01 02:36:26;;;;;;;9.57;6.47;;;8.60;99.90;;;;;;4978215;28;20319;-84
2023/05/01 02:38:52;;;;;;;10.95;6.75;;;8.60;99.90;;;;;;4955072;28;20183;-83
2023/05/01 02:41:21;;;;;;;6.95;5.88;;;8.60;99.90;;;;;;4985191;28;20180;-84
2023/05/01 02:43:51;;;;;;;10.20;6.63;;;8.50;99.90;;;;;;4961818;28;20192;-84
2023/05/01 02:46:19;;;;;;;9.30;6.60;;;8.40;99.90;;;;;;4954737;28;20207;-83
2023/05/01 02:48:45;;;;;;;10.65;7.25;;;8.50;99.90;;;;;;4971326;28;20613;-84
2023/05/01 02:51:11;;;;;;;9.70;5.90;;;8.60;99.90;;;;;;4950717;28;20176;-85
2023/05/01 02:53:39;;;;;;;9.30;5.80;;;8.60;99.90;;;;;;4960635;28;20871;-84
2023/05/01 02:56:06;;;;;;;10.30;6.78;;;8.60;99.90;;;;;;4975614;28;20220;-84
2023/05/01 02:58:32;;;;;;;9.27;6.60;;;8.60;99.90;;;;;;4962394;28;20186;-84
2023/05/01 03:00:58;;;;;;;13.95;7.13;;;8.60;99.90;;;;;;4973529;28;20200;-85
2023/05/01 03:03:23;;;;;;;12.13;7.63;;;8.50;99.90;;;;;;4959996;28;20195;-84
2023/05/01 03:05:50;;;;;;;9.17;7.10;;;8.40;99.90;;;;;;4957865;28;20190;-85
2023/05/01 03:08:16;;;;;;;9.60;6.88;;;8.40;99.90;;;;;;4976901;28;20195;-85
2023/05/01 03:10:42;;;;;;;10.93;7.53;;;8.30;99.90;;;;;;4960939;28;20183;-84
2023/05/01 03:13:08;;;;;;;11.43;6.97;;;8.40;99.90;;;;;;4962323;28;20644;-84
2023/05/01 03:15:33;;;;;;;9.30;6.63;;;8.20;99.90;;;;;;4977797;28;20430;-84
2023/05/01 03:17:58;;;;;;;9.30;6.50;;;8.20;99.90;;;;;;4971628;28;20517;-85
2023/05/01 03:20:24;;;;;;;8.90;7.00;;;8.30;99.90;;;;;;4947573;28;20270;-84
2023/05/01 03:22:50;;;;;;;13.10;6.93;;;8.40;99.90;;;;;;4970458;28;20224;-85
2023/05/01 03:25:15;;;;;;;17.37;7.97;;;8.40;99.90;;;;;;4960344;28;20711;-83
2023/05/01 03:27:41;;;;;;;19.07;8.70;;;8.40;99.90;;;;;;4959323;28;20235;-83
2023/05/01 03:30:08;;;;;;;13.03;9.47;;;8.50;99.90;;;;;;4957701;28;20171;-83
2023/05/01 03:32:35;;;;;;;12.48;8.00;;;8.50;99.90;;;;;;4959202;28;20183;-84
2023/05/01 03:35:01;;;;;;;10.13;6.40;;;8.50;99.90;;;;;;4968198;28;20258;-82
2023/05/01 03:37:27;;;;;;;9.60;7.97;;;8.60;99.90;;;;;;4958466;28;20215;-83
2023/05/01 03:39:53;;;;;;;10.47;7.77;;;8.60;99.90;;;;;;4949457;28;20712;-83
2023/05/01 03:42:18;;;;;;;12.40;7.73;;;8.60;99.90;;;;;;4971235;28;20837;-83
2023/05/01 03:44:44;;;;;;;12.60;9.30;;;8.60;99.90;;;;;;4970745;28;20196;-83
2023/05/01 03:47:09;;;;;;;10.27;6.50;;;8.60;99.90;;;;;;4973212;28;20207;-84
2023/05/01 03:49:35;;;;;;;8.90;6.57;;;8.60;99.90;;;;;;4957013;28;20826;-84
2023/05/01 03:52:01;;;;;;;11.53;7.93;;;8.60;99.90;;;;;;4968357;28;20195;-84
2023/05/01 03:54:26;;;;;;;9.47;7.17;;;8.50;99.90;;;;;;4972420;28;20184;-85
2023/05/01 03:56:52;;;;;;;9.30;7.10;;;8.50;99.90;;;;;;4969147;28;20199;-85
2023/05/01 03:59:17;;;;;;;10.23;8.00;;;8.50;99.90;;;;;;4972026;28;20210;-84
2023/05/01 04:01:43;;;;;;;12.47;8.13;;;8.50;99.90;;;;;;4974490;28;20271;-84
2023/05/01 04:04:09;;;;;;;8.07;6.13;;;8.50;99.90;;;;;;4972414;28;20186;-82
2023/05/01 04:06:35;;;;;;;10.90;7.50;;;8.50;99.90;;;;;;4974611;28;20466;-83
2023/05/01 04:09:01;;;;;;;9.15;6.53;;;8.60;99.90;;;;;;4970585;28;20175;-84
2023/05/01 04:11:27;;;;;;;15.10;8.00;;;8.60;99.90;;;;;;4974481;28;20184;-84
2023/05/01 04:13:52;;;;;;;10.07;7.00;;;8.50;99.90;;;;;;4975812;28;20449;-84
2023/05/01 04:16:18;;;;;;;11.37;7.87;;;8.50;99.90;;;;;;4973641;28;20263;-82
2023/05/01 04:18:43;;;;;;;13.37;8.27;;;8.50;99.90;;;;;;4972277;28;20192;-83
2023/05/01 04:21:09;;;;;;;11.27;7.07;;;8.50;99.90;;;;;;4970921;28;20196;-82
2023/05/01 04:23:35;;;;;;;11.13;8.00;;;8.50;99.90;;;;;;4971084;28;20191;-83
2023/05/01 04:26:00;;;;;;;12.57;8.67;;;9.40;99.90;;;;;;4957109;28;20254;-85
2023/05/01 04:28:26;;;;;;;10.10;7.77;;;8.60;99.90;;;;;;4957661;28;20203;-84
2023/05/01 04:30:52;;;;;;;12.43;7.97;;;8.60;99.90;;;;;;4962801;28;20183;-84
2023/05/01 04:33:17;;;;;;;12.37;7.77;;;8.70;99.90;;;;;;4946080;28;20214;-83
2023/05/01 04:35:43;;;;;;;11.40;7.30;;;;;;;;;;4970320;28;20215;-85
2023/05/01 04:38:09;;;;;;;10.40;7.00;;;;;;;;;;4952465;28;20198;-83
2023/05/01 04:40:35;;;;;;;12.65;7.57;;;8.90;99.90;;;;;;4950803;28;20478;-84
2023/05/01 04:43:01;;;;;;;7.63;6.70;;;9.00;99.90;;;;;;4952137;28;20215;-85
2023/05/01 04:45:27;;;;;;;11.50;7.23;;;;;;;;;;4975354;28;20186;-86
2023/05/01 04:47:52;;;;;;;12.65;7.63;;;9.00;99.90;;;;;;4953365;28;20323;-85
2023/05/01 04:50:18;;;;;;;9.50;6.70;;;9.00;99.90;;;;;;4960340;28;20795;-84
2023/05/01 04:52:43;;;;;;;9.00;6.40;;;9.00;99.90;;;;;;4976018;28;20187;-84
2023/05/01 04:55:09;;;;;;;9.97;6.57;;;9.20;99.90;;;;;;4974531;28;20195;-84
2023/05/01 04:57:35;;;;;;;8.60;6.30;;;;;;;;;;4970266;28;20210;-84
2023/05/01 05:00:02;;;;;;;6.75;5.80;;;9.40;99.90;;;;;;4976900;28;20202;-83
2023/05/01 05:02:27;;;;;;;9.07;6.85;;;9.50;99.90;;;;;;4950691;28;20223;-83
2023/05/01 05:04:53;;;;;;;11.90;6.63;;;9.70;99.90;;;;;;4977141;28;20169;-82
2023/05/01 05:07:19;;;;;;;8.30;5.60;;;;;;;;;;4974925;28;20271;-83
2023/05/01 05:09:45;;;;;;;20.17;6.97;;;9.60;99.90;;;;;;4974902;28;20675;-82
2023/05/01 05:12:11;;;;;;;9.70;5.67;;;9.60;99.90;;;;;;4973701;28;20188;-84
2023/05/01 05:14:37;;;;;;;11.67;8.47;;;9.60;99.90;;;;;;4955213;28;20195;-83
2023/05/01 05:17:03;;;;;;;9.73;6.10;;;;;;;;;;4951426;28;20513;-84
2023/05/01 05:19:28;;;;;;;22.70;14.03;;;9.70;99.90;;;;;;4969946;28;20586;-83
2023/05/01 05:21:54;;;;;;;10.20;6.73;;;9.70;99.90;;;;;;4954560;28;20443;-83
2023/05/01 05:24:19;;;;;;;8.33;5.43;;;9.70;99.90;;;;;;4972829;28;20180;-84
2023/05/01 05:26:45;;;;;;;6.87;5.40;;;9.70;99.90;;;;;;4975436;28;20207;-84
2023/05/01 05:29:10;;;;;;;7.53;5.70;;;9.90;99.90;;;;;;4974519;28;20231;-83
2023/05/01 05:31:36;;;;;;;9.70;6.23;;;10.00;99.90;;;;;;4954142;28;20181;-83
2023/05/01 05:34:01;;;;;;;8.93;7.60;;;10.20;99.90;;;;;;4946840;28;20267;-83
2023/05/01 05:36:27;;;;;;;11.90;9.33;;;10.30;99.90;;;;;;4967205;28;20230;-83
2023/05/01 05:38:53;;;;;;;17.53;9.17;;;10.40;99.90;;;;;;4974499;28;20225;-84
2023/05/01 05:41:19;;;;;;;8.47;5.60;;;;;;;;;;4950537;28;20194;-84
2023/05/01 05:43:45;;;;;;;6.77;5.30;;;;;;;;;;4974917;28;20212;-84
2023/05/01 05:46:11;;;;;;;6.90;4.67;;;;;;;;;;4955415;28;21022;-84
2023/05/01 05:48:37;;;;;;;8.17;4.60;;;;;;;;;;4958989;28;20447;-85
2023/05/01 05:51:03;;;;;;;6.43;5.67;;;;;;;;;;4968946;28;20461;-85
2023/05/01 05:53:29;;;;;;;7.38;5.10;;;;;;;;;;4950822;28;20598;-83
2023/05/01 05:55:55;;;;;;;6.20;4.30;;;;;;;;;;4970460;28;20743;-82
2023/05/01 05:58:22;;;;;;;7.90;5.13;;;;;;;;;;4970450;28;20203;-83
2023/05/01 06:00:52;;;;;;;6.07;4.43;;;11.10;99.90;;;;;;4951288;28;20438;-84
2023/05/01 06:03:18;;;;;;;4.93;4.40;;;;;;;;;;4976668;28;20214;-85
2023/05/01 06:05:44;;;;;;;8.02;5.45;;;;;;;;;;4972798;28;20199;-83
2023/05/01 06:08:10;;;;;;;5.72;5.10;;;;;;;;;;4955546;28;22646;-86
2023/05/01 06:10:38;;;;;;;5.88;4.60;;;;;;;;;;4947769;28;20172;-86
2023/05/01 06:13:04;;;;;;;5.43;4.75;;;;;;;;;;4972929;28;20172;-86
2023/05/01 06:15:30;;;;;;;5.73;4.73;;;;;;;;;;4969996;28;20184;-87
2023/05/01 06:17:55;;;;;;;6.87;4.97;;;12.00;99.90;;;;;;4956068;28;21017;-86
2023/05/01 06:20:21;;;;;;;6.73;5.50;;;;;;;;;;4959049;28;20447;-86
2023/05/01 06:22:47;;;;;;;5.37;4.80;;;;;;;;;;4950936;28;20184;-86
2023/05/01 06:25:13;;;;;;;7.70;5.90;;;;;;;;;;4945821;28;20443;-86
2023/05/01 06:27:39;;;;;;;7.30;5.07;;;11.90;99.90;;;;;;4963147;28;20490;-86
2023/05/01 06:30:05;;;;;;;7.47;5.27;;;11.90;99.90;;;;;;4970944;28;20253;-86
2023/05/01 06:32:31;;;;;;;9.93;6.30;;;;;;;;;;4957795;28;20187;-86
2023/05/01 06:34:57;;;;;;;8.23;6.40;;;;;;;;;;4971446;28;20259;-86
2023/05/01 06:37:22;;;;;;;7.17;5.60;;;12.50;99.90;;;;;;4971267;28;20881;-86
2023/05/01 06:39:48;;;;;;;5.97;4.53;;;;;;;;;;4949804;28;20526;-86
2023/05/01 06:42:15;;;;;;;7.97;4.30;;;;;;;;;;4972975;28;20203;-86
2023/05/01 06:44:41;;;;;;;5.60;4.68;;;12.20;99.90;;;;;;4945768;28;20243;-82
2023/05/01 06:47:07;;;;;;;12.33;5.50;;;;;;;;;;4953662;28;20218;-82
2023/05/01 06:49:32;;;;;;;6.17;5.27;;;12.50;99.90;;;;;;4968403;28;20432;-83
2023/05/01 06:51:58;;;;;;;6.30;5.20;;;;;;;;;;4958066;28;20450;-83
2023/05/01 06:54:25;;;;;;;6.55;4.75;;;12.20;99.90;;;;;;4941019;28;20916;-82
2023/05/01 06:56:51;;;;;;;7.40;5.35;;;12.20;99.90;;;;;;4968931;28;20226;-82
2023/05/01 06:59:17;;;;;;;6.82;5.35;;;12.20;99.90;;;;;;4970300;28;20180;-83
2023/05/01 07:01:43;;;;;;;5.97;4.73;;;12.20;99.90;;;;;;4966022;28;20198;-83
2023/05/01 07:04:08;;;;;;;6.53;5.27;;;12.20;99.90;;;;;;4945020;28;20187;-83
2023/05/01 07:06:34;;;;;;;5.30;4.80;;;12.30;99.90;;;;;;4948258;28;20220;-82
2023/05/01 07:08:59;;;;;;;13.60;5.70;;;12.30;99.90;;;;;;4975773;28;20244;-82
2023/05/01 07:11:25;;;;;;;8.50;4.90;;;;;;;;;;4978467;28;20203;-82
2023/05/01 07:13:51;;;;;;;5.57;5.07;;;12.30;99.90;;;;;;4964045;28;20219;-82
2023/05/01 07:16:17;;;;;;;6.65;5.10;;;12.40;99.90;;;;;;4978484;28;20224;-82
2023/05/01 07:18:42;;;;;;;7.17;5.23;;;12.40;99.90;;;;;;4958273;28;20191;-82
2023/05/01 07:21:10;;;;;;;5.73;5.10;;;12.30;99.90;;;;;;4975230;28;20185;-82
2023/05/01 07:23:36;;;;;;;9.77;5.90;;;12.30;99.90;;;;;;4976794;28;20176;-82
2023/05/01 07:26:02;;;;;;;6.30;5.53;;;12.30;99.90;;;;;;4979047;28;20533;-83
2023/05/01 07:28:28;;;;;;;8.32;5.10;;;12.50;99.90;;;;;;4980361;28;20464;-83
2023/05/01 07:30:54;;;;;;;5.97;4.70;;;12.70;99.90;;;;;;4979908;28;20180;-82
2023/05/01 07:33:19;;;;;;;8.20;6.10;;;12.90;99.90;;;;;;4973841;28;20442;-83
2023/05/01 07:35:45;;;;;;;8.43;5.53;;;;;;;;;;4971234;28;20184;-81
2023/05/01 07:38:12;;;;;;;6.27;4.47;;;;;;;;;;4971486;28;20497;-82
2023/05/01 07:40:38;;;;;;;7.05;5.97;;;;;;;;;;4975511;28;20535;-82
2023/05/01 07:43:06;;;;;;;7.97;5.20;;;;;;;;;;4973274;28;20196;-82
2023/05/01 07:45:31;;;;;;;5.50;4.87;;;13.40;99.90;;;;;;4960227;28;20435;-82
2023/05/01 07:47:57;;;;;;;11.73;6.50;;;;;;;;;;4976150;28;20469;-82
2023/05/01 07:50:24;;;;;;;8.17;5.20;;;;;;;;;;4972721;28;20827;-82
2023/05/01 07:52:50;;;;;;;7.50;6.40;;;12.90;99.90;;;;;;4969385;28;20438;-83
2023/05/01 07:55:18;;;;;;;7.27;5.43;;;;;;;;;;4947751;28;20427;-82
2023/05/01 07:57:44;;;;;;;7.45;6.00;;;;;;;;;;4953412;28;20203;-82
2023/05/01 08:00:10;;;;;;;8.45;5.70;;;13.40;99.90;;;;;;4969657;28;20226;-82
2023/05/01 08:02:36;;;;;;;6.45;5.07;;;;;;;;;;4969722;28;20179;-82
2023/05/01 08:05:02;;;;;;;8.00;5.50;;;13.60;99.90;;;;;;4949822;28;20366;-82
2023/05/01 08:07:28;;;;;;;7.93;5.57;;;;;;;;;;4960031;28;20546;-81
2023/05/01 08:09:54;;;;;;;7.00;5.63;;;;;;;;;;4943632;28;20428;-81
2023/05/01 08:12:20;;;;;;;7.60;5.57;;;13.90;99.90;;;;;;4965132;28;22032;-82
2023/05/01 08:14:46;;;;;;;12.93;5.77;;;;;;;;;;4952034;28;20457;-82
2023/05/01 08:17:12;;;;;;;15.07;6.37;;;;;;;;;;4969417;28;20199;-82
2023/05/01 08:19:38;;;;;;;7.33;5.20;;;;;;;;;;4968145;28;20477;-82
2023/05/01 08:22:04;;;;;;;10.93;6.47;;;;;;;;;;4955075;28;20859;-81
2023/05/01 08:24:30;;;;;;;7.73;5.97;;;;;;;;;;4968921;28;20538;-82
2023/05/01 08:26:55;;;;;;;9.23;6.20;;;15.10;99.90;;;;;;4944618;28;20597;-81
2023/05/01 08:29:21;;;;;;;5.30;4.80;;;;;;;;;;4971540;28;20491;-81
2023/05/01 08:31:47;;;;;;;12.80;6.30;;;;;;;;;;4948114;28;20181;-81
2023/05/01 08:34:13;;;;;;;7.63;5.93;;;;;;;;;;4976218;28;20430;-81
2023/05/01 08:36:39;;;;;;;7.07;6.00;;;15.50;99.90;;;;;;4962087;28;20467;-81
2023/05/01 08:39:05;;;;;;;6.53;5.80;;;;;;;;;;4994743;28;20411;-81
2023/05/01 08:41:31;;;;;;;7.37;6.67;;;15.60;99.90;;;;;;4976933;28;20218;-82
2023/05/01 08:44:00;;;;;;;8.50;6.20;;;15.60;99.90;;;;;;4963842;28;20467;-83
2023/05/01 08:46:47;;;;;;;7.90;6.50;;;15.60;99.90;;;;;;4967448;28;20525;-84
2023/05/01 08:49:15;;;;;;;8.37;6.67;;;15.60;99.90;;;;;;4944941;28;20435;-82
2023/05/01 08:51:45;;;;;;;7.13;6.43;;;15.60;99.90;;;;;;4969124;28;20439;-83
2023/05/01 08:54:11;;;;;;;7.47;6.70;;;;;;;;;;4954015;28;20586;-84
2023/05/01 08:56:38;;;;;;;10.17;6.20;;;;;;;;;;4951640;28;20487;-82
2023/05/01 08:59:04;;;;;;;8.30;6.67;;;15.60;99.90;;;;;;4970723;28;20442;-82
2023/05/01 09:01:31;;;;;;;9.73;5.70;;;;;;;;;;4964088;28;20447;-82
2023/05/01 09:03:57;;;;;;;11.50;6.40;;;16.10;99.90;;;;;;4965130;28;20882;-81
2023/05/01 09:06:27;;;;;;;6.30;5.70;;;16.30;99.90;;;;;;4960951;28;20514;-81
2023/05/01 09:08:52;;;;;;;11.00;6.03;;;17.00;99.90;;;;;;4965386;28;20474;-81
2023/05/01 09:11:18;;;;;;;6.40;5.53;;;17.10;99.90;;;;;;4977381;28;20876;-80
2023/05/01 09:13:45;;;;;;;7.00;6.27;;;;;;;;;;4955086;28;20235;-80
2023/05/01 09:16:11;;;;;;;6.60;5.60;;;18.50;99.90;;;;;;4958301;28;20458;-81
2023/05/01 09:18:37;;;;;;;7.43;6.17;;;19.60;99.90;;;;;;4946607;28;20542;-81
2023/05/01 09:21:03;;;;;;;7.93;5.97;;;20.30;99.90;;;;;;4962423;28;20578;-80
2023/05/01 09:23:29;;;;;;;5.73;5.17;;;20.20;99.90;;;;;;4967073;28;20455;-81
2023/05/01 09:25:56;;;;;;;7.07;5.70;;;20.20;99.90;;;;;;4959678;28;20466;-81
2023/05/01 09:28:44;;;;;;;6.10;5.50;;;20.40;99.90;;;;;;4972664;28;20550;-81
2023/05/01 09:31:27;;;;;;;6.60;5.90;;;20.20;99.90;;;;;;4967040;28;20477;-81
2023/05/01 09:33:54;;;;;;;11.60;6.73;;;20.30;99.90;;;;;;4972263;28;20510;-82
2023/05/01 09:36:20;;;;;;;9.53;5.80;;;;;;;;;;4968772;28;20454;-81
2023/05/01 09:38:46;;;;;;;9.13;5.80;;;;;;;;;;4966050;28;20539;-80
2023/05/01 09:41:12;;;;;;;8.33;6.10;;;;;;;;;;4962810;28;20475;-80
2023/05/01 09:43:38;;;;;;;11.90;6.83;;;;;;;;;;4936458;28;20443;-80
2023/05/01 09:46:09;;;;;;;9.87;6.40;;;18.90;99.90;;;;;;4967867;28;20469;-81
2023/05/01 09:48:36;;;;;;;7.30;6.60;;;16.90;99.90;;;;;;4969457;28;20467;-81
2023/05/01 09:51:20;;;;;;;10.90;6.13;;;18.20;99.90;;;;;;4971656;28;20542;-81
2023/05/01 09:53:45;;;;;;;8.20;6.67;;;;;;;;;;4964771;28;20435;-80
2023/05/01 09:56:11;;;;;;;11.13;6.60;;;;;;;;;;4966739;28;20498;-80
2023/05/01 09:58:38;;;;;;;11.27;6.27;;;;;;;;;;4967227;28;20949;-80
2023/05/01 10:01:03;;;;;;;6.80;6.07;;;18.20;99.90;;;;;;4969362;28;20436;-80
2023/05/01 10:03:30;;;;;;;7.20;6.00;;;;;;;;;;4960324;28;21331;-81
2023/05/01 10:05:59;;;;;;;9.33;7.20;;;18.40;99.90;;;;;;4967620;28;20209;-81
2023/05/01 10:08:25;;;;;;;6.80;6.03;;;;;;;;;;4967688;28;20490;-80
2023/05/01 10:11:03;;;;;;;7.70;6.77;;;18.90;99.90;;;;;;4970321;28;20459;-81
2023/05/01 10:13:30;;;;;;;10.90;6.73;;;;;;;;;;4942161;28;20459;-80
2023/05/01 10:15:56;;;;;;;7.50;6.17;;;19.40;99.90;;;;;;4966016;28;20447;-80
2023/05/01 10:18:22;;;;;;;7.13;6.43;;;;;;;;;;4969254;28;20727;-81
2023/05/01 10:20:48;;;;;;;8.43;6.90;;;19.10;99.90;;;;;;4950543;28;20200;-81
2023/05/01 10:23:13;;;;;;;7.17;5.50;;;18.70;99.90;;;;;;4976547;28;20788;-81
2023/05/01 10:25:41;;;;;;;9.10;7.90;;;18.50;99.90;;;;;;4977359;28;20195;-80
2023/05/01 10:28:08;;;;;;;7.47;6.70;;;18.60;99.90;;;;;;4975435;28;20219;-80
2023/05/01 10:30:35;;;;;;;10.90;6.70;;;18.70;99.90;;;;;;4967629;28;20443;-81
2023/05/01 10:33:01;;;;;;;8.87;7.97;;;18.80;99.90;;;;;;4969215;28;20434;-81
2023/05/01 10:35:32;;;;;;;7.73;7.00;;;19.60;99.90;;;;;;4970030;28;20443;-81
2023/05/01 10:38:09;;;;;;;8.20;7.33;;;20.30;99.90;;;;;;4974502;28;20222;-81
2023/05/01 10:40:45;;;;;;;12.20;7.60;;;20.80;99.90;;;;;;4977104;28;20439;-80
2023/05/01 10:43:27;;;;;;;8.60;7.30;;;21.00;99.90;;;;;;4979742;28;20431;-81
2023/05/01 10:46:19;;;;;;;9.20;7.40;;;20.50;99.90;;;;;;4970594;28;20535;-81
2023/05/01 10:48:45;;;;;;;8.53;7.13;;;;;;;;;;4964410;28;20866;-81
2023/05/01 10:51:16;;;;;;;7.97;6.40;;;20.40;99.90;;;;;;4967535;28;20423;-81
2023/05/01 10:53:44;;;;;;;12.73;7.50;;;20.60;99.90;;;;;;4964507;28;20466;-81
2023/05/01 10:56:30;;;;;;;8.80;7.90;;;20.60;99.90;;;;;;4973075;28;20538;-81
2023/05/01 10:58:58;;;;;;;8.63;7.73;;;21.10;99.90;;;;;;4972332;28;20447;-81
2023/05/01 11:01:52;;;;;;;10.90;7.07;;;21.30;97.70;;;;;;4979974;28;20498;-80
2023/05/01 11:04:20;;;;;;;8.07;6.97;;;21.20;97.20;;;;;;4964967;28;20431;-81
2023/05/01 11:07:04;;;;;;;7.60;6.43;;;21.10;99.90;;;;;;4949936;28;20478;-81
2023/05/01 11:09:57;;;;;;;8.77;7.97;;;21.70;99.90;;;;;;4967867;28;20969;-81
2023/05/01 11:12:45;;;;;;;10.33;7.03;;;22.20;96.50;;;;;;4971181;28;20430;-80
2023/05/01 11:15:11;;;;;;;8.77;7.60;;;23.00;96.20;;;;;;4974092;28;20522;-80
2023/05/01 11:17:42;;;;;;;8.90;7.77;;;22.40;99.90;;;;;;4977445;28;20510;-80
2023/05/01 11:20:31;;;;;;;10.07;7.03;;;22.10;94.10;;;;;;4978100;28;20489;-80
2023/05/01 11:22:57;;;;;;;8.73;7.90;;;21.10;99.90;;;;;;4962362;28;20444;-81
2023/05/01 11:25:31;;;;;;;9.57;7.50;;;20.70;96.50;;;;;;4961145;28;20443;-80
2023/05/01 11:28:00;;;;;;;7.43;6.63;;;20.80;99.90;;;;;;4969260;28;20467;-80
2023/05/01 11:30:26;;;;;;;11.63;7.70;;;;;;;;;;4972279;28;20432;-80
2023/05/01 11:32:51;;;;;;;9.10;7.30;;;20.50;99.90;;;;;;4967718;28;20515;-81
2023/05/01 11:35:27;;;;;;;8.00;6.40;;;20.80;99.90;;;;;;4973361;28;20475;-80
2023/05/01 11:37:54;;;;;;;11.27;7.07;;;20.30;99.90;;;;;;4960163;28;20207;-81
2023/05/01 11:40:21;;;;;;;8.53;6.40;;;20.50;99.90;;;;;;4964279;28;20440;-80
2023/05/01 11:42:47;;;;;;;12.23;7.20;;;;;;;;;;4964931;28;20780;-80
2023/05/01 11:45:14;;;;;;;7.93;6.60;;;20.90;97.20;;;;;;4947761;28;20436;-81
2023/05/01 11:47:40;;;;;;;6.73;6.13;;;;;;;;;;4968043;28;20470;-80
2023/05/01 11:50:07;;;;;;;7.20;6.50;;;20.50;99.90;;;;;;4949414;28;20454;-80
2023/05/01 11:52:43;;;;;;;10.33;7.50;;;20.30;99.90;;;;;;4975105;28;20440;-81
2023/05/01 11:55:09;;;;;;;8.17;7.37;;;20.30;99.90;;;;;;4973190;28;20438;-81
2023/05/01 11:57:48;;;;;;;11.57;6.90;;;20.40;98.10;;;;;;4965023;28;20527;-82
2023/05/01 12:00:15;;;;;;;12.43;7.47;;;20.30;99.90;;;;;;4964274;28;20489;-82
2023/05/01 12:02:58;;;;;;;8.00;6.90;;;20.20;98.90;;;;;;4966801;28;20873;-81
2023/05/01 12:05:25;;;;;;;8.83;7.03;;;20.60;98.30;;;;;;4968410;28;20435;-82
2023/05/01 12:07:51;;;;;;;8.63;6.87;;;;;;;;;;4972278;28;20473;-82
2023/05/01 12:10:17;;;;;;;7.70;6.60;;;;;;;;;;4974919;28;20777;-82
2023/05/01 12:12:43;;;;;;;8.07;6.47;;;;;;;;;;4974155;28;20854;-81
2023/05/01 12:15:09;;;;;;;8.23;6.40;;;21.40;95.80;;;;;;4962710;28;20431;-82
2023/05/01 12:17:35;;;;;;;8.53;6.80;;;21.60;97.20;;;;;;4960122;28;20455;-82
2023/05/01 12:20:03;;;;;;;8.33;6.73;;;21.70;96.10;;;;;;4945775;28;20821;-82
2023/05/01 12:22:29;;;;;;;7.73;6.90;;;21.90;99.90;;;;;;4965379;28;20212;-79
2023/05/01 12:24:55;;;;;;;11.77;8.07;;;;;;;;;;4966406;28;20463;-79
2023/05/01 12:27:21;;;;;;;8.67;7.40;;;;;;;;;;4968779;28;20462;-82
2023/05/01 12:29:47;;;;;;;9.20;8.17;;;21.40;99.90;;;;;;4969133;28;20431;-82
2023/05/01 12:32:14;;;;;;;9.13;7.00;;;21.70;96.30;;;;;;4968389;28;20518;-82
2023/05/01 12:34:40;;;;;;;8.77;6.93;;;21.40;99.90;;;;;;4958404;28;20188;-82
2023/05/01 12:37:06;;;;;;;12.03;8.87;;;21.30;97.40;;;;;;4962701;28;20983;-82
2023/05/01 12:39:43;;;;;;;10.17;7.93;;;20.90;99.90;;;;;;4960100;28;20440;-82
2023/05/01 12:42:13;;;;;;;8.53;7.67;;;21.60;99.90;;;;;;4965770;28;20457;-79
2023/05/01 12:44:39;;;;;;;11.13;7.33;;;;;;;;;;4968736;28;20470;-81
2023/05/01 12:47:06;;;;;;;9.97;7.90;;;21.50;99.90;;;;;;4974764;28;20457;-81
2023/05/01 12:49:37;;;;;;;9.03;7.10;;;21.00;99.90;;;;;;4968734;28;20474;-81
2023/05/01 12:52:05;;;;;;;11.53;7.83;;;20.80;99.90;;;;;;4942508;28;20440;-82
2023/05/01 12:54:31;;;;;;;10.00;8.53;;;20.20;99.90;;;;;;4966089;28;20463;-81
2023/05/01 12:57:14;;;;;;;11.93;8.57;;;20.00;99.90;;;;;;4967311;28;20578;-81
2023/05/01 12:59:41;;;;;;;9.50;6.93;;;20.60;99.20;;;;;;4970091;28;20442;-81
2023/05/01 13:02:13;;;;;;;12.80;8.20;;;20.60;99.40;;;;;;4971485;28;20423;-81
2023/05/01 13:04:40;;;;;;;8.77;7.03;;;;;;;;;;4974961;28;21154;-81
2023/05/01 13:07:16;;;;;;;12.27;6.93;;;21.00;99.90;;;;;;4976157;28;20455;-85
2023/05/01 13:09:52;;;;;;;12.40;7.27;;;20.40;99.90;;;;;;4972964;28;20479;-84
2023/05/01 13:12:18;;;;;;;11.07;9.13;;;;;;;;;;4975040;28;20438;-84
2023/05/01 13:14:44;;;;;;;10.33;8.00;;;20.20;99.90;;;;;;4975151;28;20442;-83
2023/05/01 13:17:11;;;;;;;9.77;7.37;;;19.80;99.90;;;;;;4973173;28;20538;-83